Alma, Arkansas
Current Conditions -  °F | °C
As of 7:53 PM on Saturday 22 Nov 2014 (Local Time) from KFSM Reporting Station
Haze Haze  
Wind Chill: 53°   Ceiling: 300
Heat Index: 53°   Visibility: 3mi
Dew Point: 51°   Wind: 8mph
Humidity: 93%   Direction: 70°ENE
Pressure: 29.91"   Gusts: NA
Location:  35.48°N, 94.22°W
Report Text: KFSM 230153Z 07007KT 3SM BR OVC003 12/11 A2991 RMK AO2 SLP126 T01170106
Loading
Personal Weather Stations






























Interactive Weather Map New forecast layout! Learn more

10-Day Weather Forecast

Advertisements
Track Severe Weather on mobile